sensor_id;sensor_type;location;lat;lon;timestamp;temperature;humidity
41168;DHT22;26906;45.658;9.272;2023-05-29T05:37:11;21.50;99.90
41168;DHT22;26906;45.658;9.272;2023-05-29T05:39:39;21.30;99.90
41168;DHT22;26906;45.658;9.272;2023-05-29T05:42:05;21.30;99.90
41168;DHT22;26906;45.658;9.272;2023-05-29T05:44:52;21.20;99.90
41168;DHT22;26906;45.658;9.272;2023-05-29T05:47:18;21.00;99.90
41168;DHT22;26906;45.658;9.272;2023-05-29T05:49:44;20.80;99.90
41168;DHT22;26906;45.658;9.272;2023-05-29T05:52:10;20.90;99.90
41168;DHT22;26906;45.658;9.272;2023-05-29T05:54:35;20.80;99.90
41168;DHT22;26906;45.658;9.272;2023-05-29T05:57:01;20.90;99.90
41168;DHT22;26906;45.658;9.272;2023-05-29T05:59:29;20.90;99.90
41168;DHT22;26906;45.658;9.272;2023-05-29T06:01:55;21.00;99.90
41168;DHT22;26906;45.658;9.272;2023-05-29T06:04:20;20.90;99.90
41168;DHT22;26906;45.658;9.272;2023-05-29T06:06:46;20.80;99.90
41168;DHT22;26906;45.658;9.272;2023-05-29T06:09:13;20.80;99.90
41168;DHT22;26906;45.658;9.272;2023-05-29T06:11:39;20.70;99.90
41168;DHT22;26906;45.658;9.272;2023-05-29T06:14:05;20.70;99.90
41168;DHT22;26906;45.658;9.272;2023-05-29T06:16:31;20.60;99.90
41168;DHT22;26906;45.658;9.272;2023-05-29T06:18:57;20.60;99.90
41168;DHT22;26906;45.658;9.272;2023-05-29T06:21:24;20.80;99.90
41168;DHT22;26906;45.658;9.272;2023-05-29T06:23:54;20.90;99.90
41168;DHT22;26906;45.658;9.272;2023-05-29T06:26:20;21.00;99.90
41168;DHT22;26906;45.658;9.272;2023-05-29T06:28:48;21.20;99.90
41168;DHT22;26906;45.658;9.272;2023-05-29T06:31:14;21.20;99.90
41168;DHT22;26906;45.658;9.272;2023-05-29T06:33:40;21.30;99.90
41168;DHT22;26906;45.658;9.272;2023-05-29T06:36:06;21.40;99.90
41168;DHT22;26906;45.658;9.272;2023-05-29T06:38:33;21.50;99.90
41168;DHT22;26906;45.658;9.272;2023-05-29T06:40:59;21.60;99.90
41168;DHT22;26906;45.658;9.272;2023-05-29T06:43:25;21.70;99.90
41168;DHT22;26906;45.658;9.272;2023-05-29T06:45:56;21.80;99.90
41168;DHT22;26906;45.658;9.272;2023-05-29T06:48:21;21.80;99.90
41168;DHT22;26906;45.658;9.272;2023-05-29T06:50:48;21.70;99.90
41168;DHT22;26906;45.658;9.272;2023-05-29T06:53:34;21.50;99.90
41168;DHT22;26906;45.658;9.272;2023-05-29T06:56:00;21.40;99.90
41168;DHT22;26906;45.658;9.272;2023-05-29T06:58:26;21.40;99.90
41168;DHT22;26906;45.658;9.272;2023-05-29T07:00:52;21.40;99.90
41168;DHT22;26906;45.658;9.272;2023-05-29T07:03:27;21.40;99.90
41168;DHT22;26906;45.658;9.272;2023-05-29T07:05:54;21.30;99.90
41168;DHT22;26906;45.658;9.272;2023-05-29T07:08:20;21.40;99.90
41168;DHT22;26906;45.658;9.272;2023-05-29T07:10:45;21.50;99.90
41168;DHT22;26906;45.658;9.272;2023-05-29T07:13:15;21.60;99.90
41168;DHT22;26906;45.658;9.272;2023-05-29T07:15:42;21.80;99.90
41168;DHT22;26906;45.658;9.272;2023-05-29T07:18:08;22.10;99.90
41168;DHT22;26906;45.658;9.272;2023-05-29T07:20:34;22.20;99.90
41168;DHT22;26906;45.658;9.272;2023-05-29T07:23:02;22.10;99.90
41168;DHT22;26906;45.658;9.272;2023-05-29T07:25:28;22.10;99.90
41168;DHT22;26906;45.658;9.272;2023-05-29T07:27:53;22.20;99.90
41168;DHT22;26906;45.658;9.272;2023-05-29T07:30:19;22.30;99.90
41168;DHT22;26906;45.658;9.272;2023-05-29T07:32:45;22.30;99.90
41168;DHT22;26906;45.658;9.272;2023-05-29T07:35:11;22.40;99.90
41168;DHT22;26906;45.658;9.272;2023-05-29T07:37:37;22.30;99.90
41168;DHT22;26906;45.658;9.272;2023-05-29T07:40:05;22.20;99.90
41168;DHT22;26906;45.658;9.272;2023-05-29T07:42:49;22.30;99.90
41168;DHT22;26906;45.658;9.272;2023-05-29T07:45:17;22.10;99.90
41168;DHT22;26906;45.658;9.272;2023-05-29T07:47:42;22.20;99.90
41168;DHT22;26906;45.658;9.272;2023-05-29T07:50:10;22.30;99.90
41168;DHT22;26906;45.658;9.272;2023-05-29T07:52:36;22.30;99.90
41168;DHT22;26906;45.658;9.272;2023-05-29T07:55:02;22.20;99.90
41168;DHT22;26906;45.658;9.272;2023-05-29T07:57:28;22.20;99.90
41168;DHT22;26906;45.658;9.272;2023-05-29T07:59:56;22.20;99.90
41168;DHT22;26906;45.658;9.272;2023-05-29T08:02:23;22.40;99.90
41168;DHT22;26906;45.658;9.272;2023-05-29T08:05:00;22.70;99.90
41168;DHT22;26906;45.658;9.272;2023-05-29T08:07:25;22.90;99.90
41168;DHT22;26906;45.658;9.272;2023-05-29T08:09:54;23.40;99.90
41168;DHT22;26906;45.658;9.272;2023-05-29T08:12:20;23.90;99.90
41168;DHT22;26906;45.658;9.272;2023-05-29T08:14:46;24.20;99.90
41168;DHT22;26906;45.658;9.272;2023-05-29T08:17:13;24.40;99.90
41168;DHT22;26906;45.658;9.272;2023-05-29T08:19:38;24.40;99.90
41168;DHT22;26906;45.658;9.272;2023-05-29T08:22:04;24.80;99.90
41168;DHT22;26906;45.658;9.272;2023-05-29T08:24:29;24.90;99.90
41168;DHT22;26906;45.658;9.272;2023-05-29T08:26:56;24.90;99.90
41168;DHT22;26906;45.658;9.272;2023-05-29T08:29:22;24.80;99.90
41168;DHT22;26906;45.658;9.272;2023-05-29T08:31:48;24.30;99.90
41168;DHT22;26906;45.658;9.272;2023-05-29T08:34:14;24.20;99.90
41168;DHT22;26906;45.658;9.272;2023-05-29T08:36:39;24.10;99.90
41168;DHT22;26906;45.658;9.272;2023-05-29T08:39:07;24.00;99.90
41168;DHT22;26906;45.658;9.272;2023-05-29T08:41:51;24.20;99.90
41168;DHT22;26906;45.658;9.272;2023-05-29T08:44:22;24.10;99.90
41168;DHT22;26906;45.658;9.272;2023-05-29T08:46:54;24.00;99.90
41168;DHT22;26906;45.658;9.272;2023-05-29T08:49:21;24.00;99.90
41168;DHT22;26906;45.658;9.272;2023-05-29T08:52:01;24.10;99.90
41168;DHT22;26906;45.658;9.272;2023-05-29T08:54:31;24.10;99.90
41168;DHT22;26906;45.658;9.272;2023-05-29T08:56:57;24.20;99.90
41168;DHT22;26906;45.658;9.272;2023-05-29T08:59:24;24.20;99.90
41168;DHT22;26906;45.658;9.272;2023-05-29T09:01:51;23.90;99.90
41168;DHT22;26906;45.658;9.272;2023-05-29T09:04:16;23.90;99.90
41168;DHT22;26906;45.658;9.272;2023-05-29T09:06:42;24.10;99.90
41168;DHT22;26906;45.658;9.272;2023-05-29T09:09:10;24.20;99.90
41168;DHT22;26906;45.658;9.272;2023-05-29T09:11:36;24.60;99.90
41168;DHT22;26906;45.658;9.272;2023-05-29T09:14:02;25.10;99.90
41168;DHT22;26906;45.658;9.272;2023-05-29T09:16:28;25.30;99.90
41168;DHT22;26906;45.658;9.272;2023-05-29T09:19:04;25.50;99.90
41168;DHT22;26906;45.658;9.272;2023-05-29T09:21:30;26.20;99.90
41168;DHT22;26906;45.658;9.272;2023-05-29T09:24:05;26.60;99.90
41168;DHT22;26906;45.658;9.272;2023-05-29T09:26:34;26.60;99.90
41168;DHT22;26906;45.658;9.272;2023-05-29T09:29:00;26.90;99.90
41168;DHT22;26906;45.658;9.272;2023-05-29T09:31:26;27.10;99.90
41168;DHT22;26906;45.658;9.272;2023-05-29T09:33:52;27.40;99.90
41168;DHT22;26906;45.658;9.272;2023-05-29T09:36:21;27.30;99.90
41168;DHT22;26906;45.658;9.272;2023-05-29T09:38:48;27.60;99.90
41168;DHT22;26906;45.658;9.272;2023-05-29T09:41:21;27.90;99.90
41168;DHT22;26906;45.658;9.272;2023-05-29T09:43:49;27.80;99.90
41168;DHT22;26906;45.658;9.272;2023-05-29T09:46:16;27.80;99.90
41168;DHT22;26906;45.658;9.272;2023-05-29T09:48:45;27.80;99.90
41168;DHT22;26906;45.658;9.272;2023-05-29T09:51:23;27.80;99.90
41168;DHT22;26906;45.658;9.272;2023-05-29T09:53:49;28.00;99.90
41168;DHT22;26906;45.658;9.272;2023-05-29T09:56:22;28.20;99.90
41168;DHT22;26906;45.658;9.272;2023-05-29T09:58:49;28.10;99.90
41168;DHT22;26906;45.658;9.272;2023-05-29T10:01:15;28.10;99.90
41168;DHT22;26906;45.658;9.272;2023-05-29T10:03:43;28.00;99.90
41168;DHT22;26906;45.658;9.272;2023-05-29T10:06:16;28.20;99.90
41168;DHT22;26906;45.658;9.272;2023-05-29T10:08:46;28.30;99.90
41168;DHT22;26906;45.658;9.272;2023-05-29T10:11:17;28.40;99.90
41168;DHT22;26906;45.658;9.272;2023-05-29T10:13:46;28.70;99.90
41168;DHT22;26906;45.658;9.272;2023-05-29T10:16:14;28.80;99.90
41168;DHT22;26906;45.658;9.272;2023-05-29T10:18:44;29.00;99.90
41168;DHT22;26906;45.658;9.272;2023-05-29T10:21:15;29.30;99.90
41168;DHT22;26906;45.658;9.272;2023-05-29T10:23:47;29.30;99.90
41168;DHT22;26906;45.658;9.272;2023-05-29T10:26:21;29.40;99.90
41168;DHT22;26906;45.658;9.272;2023-05-29T10:35:14;29.50;99.90
41168;DHT22;26906;45.658;9.272;2023-05-29T10:37:44;29.60;99.90
41168;DHT22;26906;45.658;9.272;2023-05-29T10:40:12;29.30;99.90
41168;DHT22;26906;45.658;9.272;2023-05-29T10:45:08;28.90;99.90
41168;DHT22;26906;45.658;9.272;2023-05-29T10:47:37;29.00;99.90
41168;DHT22;26906;45.658;9.272;2023-05-29T10:50:04;29.10;99.90
41168;DHT22;26906;45.658;9.272;2023-05-29T10:52:31;29.00;99.90
41168;DHT22;26906;45.658;9.272;2023-05-29T10:54:57;29.00;99.90
41168;DHT22;26906;45.658;9.272;2023-05-29T10:57:24;29.00;99.90
41168;DHT22;26906;45.658;9.272;2023-05-29T11:00:07;29.10;99.90
41168;DHT22;26906;45.658;9.272;2023-05-29T11:02:39;29.30;99.90
41168;DHT22;26906;45.658;9.272;2023-05-29T11:07:59;29.90;99.90
41168;DHT22;26906;45.658;9.272;2023-05-29T11:10:45;30.00;99.90
41168;DHT22;26906;45.658;9.272;2023-05-29T11:13:24;30.20;99.90
41168;DHT22;26906;45.658;9.272;2023-05-29T11:18:55;30.20;99.90
41168;DHT22;26906;45.658;9.272;2023-05-29T11:23:58;30.30;99.90
41168;DHT22;26906;45.658;9.272;2023-05-29T11:26:26;30.40;99.90
41168;DHT22;26906;45.658;9.272;2023-05-29T11:28:52;30.40;99.90
41168;DHT22;26906;45.658;9.272;2023-05-29T11:31:20;30.50;99.90
41168;DHT22;26906;45.658;9.272;2023-05-29T11:33:49;30.50;99.90
41168;DHT22;26906;45.658;9.272;2023-05-29T11:36:18;30.50;99.90
41168;DHT22;26906;45.658;9.272;2023-05-29T11:38:45;30.10;99.90
41168;DHT22;26906;45.658;9.272;2023-05-29T11:41:11;30.50;99.90
41168;DHT22;26906;45.658;9.272;2023-05-29T11:43:37;30.60;99.90
41168;DHT22;26906;45.658;9.272;2023-05-29T11:46:17;30.80;99.90
41168;DHT22;26906;45.658;9.272;2023-05-29T11:48:47;31.10;99.90
41168;DHT22;26906;45.658;9.272;2023-05-29T11:51:16;31.10;99.90
41168;DHT22;26906;45.658;9.272;2023-05-29T11:53:47;31.10;99.90
41168;DHT22;26906;45.658;9.272;2023-05-29T11:56:13;30.90;99.90
41168;DHT22;26906;45.658;9.272;2023-05-29T11:58:42;31.00;99.90
41168;DHT22;26906;45.658;9.272;2023-05-29T12:01:08;31.10;99.90
41168;DHT22;26906;45.658;9.272;2023-05-29T12:03:41;31.30;99.90
41168;DHT22;26906;45.658;9.272;2023-05-29T12:06:11;31.50;99.90
41168;DHT22;26906;45.658;9.272;2023-05-29T12:08:38;31.60;99.90
41168;DHT22;26906;45.658;9.272;2023-05-29T12:11:04;31.70;99.90
41168;DHT22;26906;45.658;9.272;2023-05-29T12:13:30;31.20;99.90
41168;DHT22;26906;45.658;9.272;2023-05-29T12:15:57;31.00;99.90
41168;DHT22;26906;45.658;9.272;2023-05-29T12:18:25;31.10;99.90
41168;DHT22;26906;45.658;9.272;2023-05-29T12:20:57;31.30;99.90
41168;DHT22;26906;45.658;9.272;2023-05-29T12:23:23;31.50;99.90
41168;DHT22;26906;45.658;9.272;2023-05-29T12:25:51;31.70;99.90
41168;DHT22;26906;45.658;9.272;2023-05-29T12:28:18;31.80;99.90
41168;DHT22;26906;45.658;9.272;2023-05-29T12:30:44;31.70;99.90
41168;DHT22;26906;45.658;9.272;2023-05-29T12:33:30;31.30;99.90
41168;DHT22;26906;45.658;9.272;2023-05-29T12:38:30;31.70;99.90
41168;DHT22;26906;45.658;9.272;2023-05-29T12:40:55;31.90;99.90
41168;DHT22;26906;45.658;9.272;2023-05-29T12:43:23;32.10;99.80
41168;DHT22;26906;45.658;9.272;2023-05-29T12:45:55;31.80;99.40
41168;DHT22;26906;45.658;9.272;2023-05-29T12:48:26;31.90;99.90
41168;DHT22;26906;45.658;9.272;2023-05-29T12:50:52;31.40;99.00
41168;DHT22;26906;45.658;9.272;2023-05-29T12:53:18;31.30;99.90
41168;DHT22;26906;45.658;9.272;2023-05-29T12:55:46;31.50;99.90
41168;DHT22;26906;45.658;9.272;2023-05-29T12:58:13;31.40;99.60
41168;DHT22;26906;45.658;9.272;2023-05-29T13:00:40;31.20;99.90
41168;DHT22;26906;45.658;9.272;2023-05-29T13:03:07;31.40;99.90
41168;DHT22;26906;45.658;9.272;2023-05-29T13:05:33;31.20;99.40
41168;DHT22;26906;45.658;9.272;2023-05-29T13:07:59;31.30;99.80
41168;DHT22;26906;45.658;9.272;2023-05-29T13:10:26;30.90;98.80
41168;DHT22;26906;45.658;9.272;2023-05-29T13:12:53;30.50;99.60
41168;DHT22;26906;45.658;9.272;2023-05-29T13:15:21;30.50;99.70
41168;DHT22;26906;45.658;9.272;2023-05-29T13:17:48;30.90;99.90
41168;DHT22;26906;45.658;9.272;2023-05-29T13:20:14;31.40;99.90
41168;DHT22;26906;45.658;9.272;2023-05-29T13:22:41;31.80;99.90
41168;DHT22;26906;45.658;9.272;2023-05-29T13:25:09;31.80;98.80
41168;DHT22;26906;45.658;9.272;2023-05-29T13:27:42;31.70;97.70
41168;DHT22;26906;45.658;9.272;2023-05-29T13:30:09;31.60;97.70
41168;DHT22;26906;45.658;9.272;2023-05-29T13:32:35;31.50;97.40
41168;DHT22;26906;45.658;9.272;2023-05-29T13:35:01;31.60;98.50
41168;DHT22;26906;45.658;9.272;2023-05-29T13:37:27;31.70;98.60
41168;DHT22;26906;45.658;9.272;2023-05-29T13:39:53;31.80;98.80
41168;DHT22;26906;45.658;9.272;2023-05-29T13:42:20;31.90;99.30
41168;DHT22;26906;45.658;9.272;2023-05-29T13:44:46;32.10;98.90
41168;DHT22;26906;45.658;9.272;2023-05-29T13:47:12;32.10;99.80
41168;DHT22;26906;45.658;9.272;2023-05-29T13:49:38;32.10;98.80
41168;DHT22;26906;45.658;9.272;2023-05-29T13:52:04;32.20;99.10
41168;DHT22;26906;45.658;9.272;2023-05-29T13:54:30;32.40;98.80
41168;DHT22;26906;45.658;9.272;2023-05-29T13:57:01;32.60;97.60
41168;DHT22;26906;45.658;9.272;2023-05-29T13:59:27;32.60;97.60
41168;DHT22;26906;45.658;9.272;2023-05-29T14:01:52;32.60;98.20
41168;DHT22;26906;45.658;9.272;2023-05-29T14:04:18;32.60;97.60
41168;DHT22;26906;45.658;9.272;2023-05-29T14:06:44;32.30;98.10
41168;DHT22;26906;45.658;9.272;2023-05-29T14:09:10;32.30;97.90
41168;DHT22;26906;45.658;9.272;2023-05-29T14:11:36;32.30;98.30
41168;DHT22;26906;45.658;9.272;2023-05-29T14:14:06;31.90;97.70
41168;DHT22;26906;45.658;9.272;2023-05-29T14:16:32;31.80;98.90
41168;DHT22;26906;45.658;9.272;2023-05-29T14:18:58;31.80;98.50
41168;DHT22;26906;45.658;9.272;2023-05-29T14:21:24;31.80;98.30
41168;DHT22;26906;45.658;9.272;2023-05-29T14:23:50;31.90;97.80
41168;DHT22;26906;45.658;9.272;2023-05-29T14:26:16;32.00;97.60
41168;DHT22;26906;45.658;9.272;2023-05-29T14:28:41;31.80;98.30
41168;DHT22;26906;45.658;9.272;2023-05-29T14:31:07;31.20;97.80
41168;DHT22;26906;45.658;9.272;2023-05-29T14:33:33;30.90;98.50
41168;DHT22;26906;45.658;9.272;2023-05-29T14:35:59;30.60;98.00
41168;DHT22;26906;45.658;9.272;2023-05-29T14:38:25;30.30;98.60
41168;DHT22;26906;45.658;9.272;2023-05-29T14:40:51;30.50;98.70
41168;DHT22;26906;45.658;9.272;2023-05-29T14:43:17;30.60;99.20
41168;DHT22;26906;45.658;9.272;2023-05-29T14:45:43;31.00;99.30
41168;DHT22;26906;45.658;9.272;2023-05-29T14:48:09;31.40;99.20
41168;DHT22;26906;45.658;9.272;2023-05-29T14:50:36;31.70;99.20
41168;DHT22;26906;45.658;9.272;2023-05-29T14:53:02;31.70;98.10
41168;DHT22;26906;45.658;9.272;2023-05-29T14:55:28;31.70;98.40
41168;DHT22;26906;45.658;9.272;2023-05-29T14:57:54;31.50;97.80
41168;DHT22;26906;45.658;9.272;2023-05-29T15:00:20;31.10;98.50
41168;DHT22;26906;45.658;9.272;2023-05-29T15:02:45;31.20;98.60
41168;DHT22;26906;45.658;9.272;2023-05-29T15:05:11;31.10;99.40
41168;DHT22;26906;45.658;9.272;2023-05-29T15:07:37;31.00;98.80
41168;DHT22;26906;45.658;9.272;2023-05-29T15:10:03;31.20;98.90
41168;DHT22;26906;45.658;9.272;2023-05-29T15:12:31;31.30;99.10
41168;DHT22;26906;45.658;9.272;2023-05-29T15:14:56;31.40;99.50
41168;DHT22;26906;45.658;9.272;2023-05-29T15:17:22;31.40;98.80
41168;DHT22;26906;45.658;9.272;2023-05-29T15:19:48;31.20;98.00
41168;DHT22;26906;45.658;9.272;2023-05-29T15:22:13;31.00;99.20
41168;DHT22;26906;45.658;9.272;2023-05-29T15:24:39;31.00;99.20
41168;DHT22;26906;45.658;9.272;2023-05-29T15:27:05;31.30;99.00
41168;DHT22;26906;45.658;9.272;2023-05-29T15:29:34;31.50;97.80
41168;DHT22;26906;45.658;9.272;2023-05-29T15:32:00;31.60;98.00
41168;DHT22;26906;45.658;9.272;2023-05-29T15:34:26;31.70;97.80
41168;DHT22;26906;45.658;9.272;2023-05-29T15:36:52;31.70;97.60
41168;DHT22;26906;45.658;9.272;2023-05-29T15:39:18;31.50;98.30
41168;DHT22;26906;45.658;9.272;2023-05-29T15:41:43;31.50;97.40
41168;DHT22;26906;45.658;9.272;2023-05-29T15:44:09;31.30;97.40
41168;DHT22;26906;45.658;9.272;2023-05-29T15:46:35;30.70;97.60
41168;DHT22;26906;45.658;9.272;2023-05-29T15:49:02;30.40;97.30
41168;DHT22;26906;45.658;9.272;2023-05-29T15:51:28;30.20;97.60
41168;DHT22;26906;45.658;9.272;2023-05-29T15:53:53;30.00;98.40
41168;DHT22;26906;45.658;9.272;2023-05-29T15:56:19;29.80;98.80
41168;DHT22;26906;45.658;9.272;2023-05-29T15:58:50;29.80;99.40
41168;DHT22;26906;45.658;9.272;2023-05-29T16:01:16;29.70;98.90
41168;DHT22;26906;45.658;9.272;2023-05-29T16:03:41;29.70;99.10
41168;DHT22;26906;45.658;9.272;2023-05-29T16:06:08;29.70;98.90
41168;DHT22;26906;45.658;9.272;2023-05-29T16:08:33;29.70;99.80
41168;DHT22;26906;45.658;9.272;2023-05-29T16:10:59;29.60;99.10
41168;DHT22;26906;45.658;9.272;2023-05-29T16:13:25;29.80;99.90
41168;DHT22;26906;45.658;9.272;2023-05-29T16:15:50;30.10;99.90
41168;DHT22;26906;45.658;9.272;2023-05-29T16:18:16;30.40;98.50
41168;DHT22;26906;45.658;9.272;2023-05-29T16:20:42;30.40;98.20
41168;DHT22;26906;45.658;9.272;2023-05-29T16:23:08;30.30;98.20
41168;DHT22;26906;45.658;9.272;2023-05-29T16:25:33;30.00;98.30
41168;DHT22;26906;45.658;9.272;2023-05-29T16:27:59;29.90;97.80
41168;DHT22;26906;45.658;9.272;2023-05-29T16:30:25;29.70;98.10
41168;DHT22;26906;45.658;9.272;2023-05-29T16:32:51;29.80;98.80
41168;DHT22;26906;45.658;9.272;2023-05-29T16:35:18;29.90;99.30
41168;DHT22;26906;45.658;9.272;2023-05-29T16:37:43;30.00;99.80
41168;DHT22;26906;45.658;9.272;2023-05-29T16:40:10;29.90;98.70
41168;DHT22;26906;45.658;9.272;2023-05-29T16:42:35;29.80;99.70
41168;DHT22;26906;45.658;9.272;2023-05-29T16:45:01;29.90;98.60
41168;DHT22;26906;45.658;9.272;2023-05-29T16:47:27;29.90;99.30
41168;DHT22;26906;45.658;9.272;2023-05-29T16:49:53;29.90;98.10
41168;DHT22;26906;45.658;9.272;2023-05-29T16:52:19;29.90;99.20
41168;DHT22;26906;45.658;9.272;2023-05-29T16:54:48;29.90;99.30
41168;DHT22;26906;45.658;9.272;2023-05-29T16:57:14;29.90;98.10
41168;DHT22;26906;45.658;9.272;2023-05-29T16:59:39;29.80;98.00
41168;DHT22;26906;45.658;9.272;2023-05-29T17:02:06;29.60;98.40
41168;DHT22;26906;45.658;9.272;2023-05-29T17:04:33;29.50;98.20
41168;DHT22;26906;45.658;9.272;2023-05-29T17:07:01;29.40;99.00
41168;DHT22;26906;45.658;9.272;2023-05-29T17:09:27;29.20;98.60
41168;DHT22;26906;45.658;9.272;2023-05-29T17:11:55;29.10;99.20
41168;DHT22;26906;45.658;9.272;2023-05-29T17:14:24;29.00;99.30
41168;DHT22;26906;45.658;9.272;2023-05-29T17:16:50;28.80;99.90
41168;DHT22;26906;45.658;9.272;2023-05-29T17:19:16;28.80;99.90
41168;DHT22;26906;45.658;9.272;2023-05-29T17:21:43;28.90;99.90
41168;DHT22;26906;45.658;9.272;2023-05-29T17:24:09;28.90;99.90
41168;DHT22;26906;45.658;9.272;2023-05-29T17:26:38;28.80;99.90
41168;DHT22;26906;45.658;9.272;2023-05-29T17:29:04;28.60;99.90
41168;DHT22;26906;45.658;9.272;2023-05-29T17:31:30;28.50;99.90
41168;DHT22;26906;45.658;9.272;2023-05-29T17:33:56;28.40;99.90
41168;DHT22;26906;45.658;9.272;2023-05-29T17:36:22;28.40;99.90
41168;DHT22;26906;45.658;9.272;2023-05-29T17:38:48;28.30;99.90
41168;DHT22;26906;45.658;9.272;2023-05-29T17:41:15;28.30;99.90
41168;DHT22;26906;45.658;9.272;2023-05-29T17:43:40;28.10;99.90
41168;DHT22;26906;45.658;9.272;2023-05-29T17:46:06;28.10;99.90
41168;DHT22;26906;45.658;9.272;2023-05-29T17:48:32;28.00;99.90
41168;DHT22;26906;45.658;9.272;2023-05-29T17:50:58;27.90;99.90
41168;DHT22;26906;45.658;9.272;2023-05-29T17:53:23;27.90;99.90
41168;DHT22;26906;45.658;9.272;2023-05-29T17:55:49;27.80;99.90
41168;DHT22;26906;45.658;9.272;2023-05-29T17:58:15;27.70;99.90
41168;DHT22;26906;45.658;9.272;2023-05-29T18:00:41;27.60;99.90
41168;DHT22;26906;45.658;9.272;2023-05-29T18:03:06;27.50;99.90
41168;DHT22;26906;45.658;9.272;2023-05-29T18:05:32;27.30;99.90
41168;DHT22;26906;45.658;9.272;2023-05-29T18:07:58;27.40;99.90
41168;DHT22;26906;45.658;9.272;2023-05-29T18:10:24;27.30;99.90
41168;DHT22;26906;45.658;9.272;2023-05-29T18:12:51;27.20;99.90
41168;DHT22;26906;45.658;9.272;2023-05-29T18:15:17;27.20;99.90
41168;DHT22;26906;45.658;9.272;2023-05-29T18:17:44;27.20;99.90
41168;DHT22;26906;45.658;9.272;2023-05-29T18:20:10;27.00;99.90
41168;DHT22;26906;45.658;9.272;2023-05-29T18:22:37;26.90;99.90
41168;DHT22;26906;45.658;9.272;2023-05-29T18:25:03;26.80;99.90
41168;DHT22;26906;45.658;9.272;2023-05-29T18:27:29;26.70;99.90
41168;DHT22;26906;45.658;9.272;2023-05-29T18:29:56;26.50;99.90
41168;DHT22;26906;45.658;9.272;2023-05-29T18:32:21;26.50;99.90
41168;DHT22;26906;45.658;9.272;2023-05-29T18:34:47;26.50;99.90
41168;DHT22;26906;45.658;9.272;2023-05-29T18:37:13;26.50;99.90
41168;DHT22;26906;45.658;9.272;2023-05-29T18:39:41;26.40;99.90
41168;DHT22;26906;45.658;9.272;2023-05-29T18:42:06;26.20;99.90
41168;DHT22;26906;45.658;9.272;2023-05-29T18:44:33;26.10;99.90
41168;DHT22;26906;45.658;9.272;2023-05-29T18:46:58;26.00;99.90
41168;DHT22;26906;45.658;9.272;2023-05-29T18:49:24;25.90;99.90
41168;DHT22;26906;45.658;9.272;2023-05-29T18:51:50;25.90;99.90
41168;DHT22;26906;45.658;9.272;2023-05-29T18:54:16;25.90;99.90
41168;DHT22;26906;45.658;9.272;2023-05-29T18:56:44;25.80;99.90
41168;DHT22;26906;45.658;9.272;2023-05-29T18:59:10;25.80;99.90
41168;DHT22;26906;45.658;9.272;2023-05-29T19:01:36;25.80;99.90
41168;DHT22;26906;45.658;9.272;2023-05-29T19:04:01;25.70;99.90
41168;DHT22;26906;45.658;9.272;2023-05-29T19:06:28;25.70;99.90
41168;DHT22;26906;45.658;9.272;2023-05-29T19:08:54;25.70;99.90
41168;DHT22;26906;45.658;9.272;2023-05-29T19:11:20;25.70;99.90
41168;DHT22;26906;45.658;9.272;2023-05-29T19:13:45;25.60;99.90
41168;DHT22;26906;45.658;9.272;2023-05-29T19:16:13;25.50;99.90
41168;DHT22;26906;45.658;9.272;2023-05-29T19:18:40;25.60;99.90
41168;DHT22;26906;45.658;9.272;2023-05-29T19:21:06;25.60;99.90
41168;DHT22;26906;45.658;9.272;2023-05-29T19:23:32;25.60;99.90
41168;DHT22;26906;45.658;9.272;2023-05-29T19:25:59;25.50;99.90
41168;DHT22;26906;45.658;9.272;2023-05-29T19:28:25;25.50;99.90
41168;DHT22;26906;45.658;9.272;2023-05-29T19:30:50;25.40;99.90
41168;DHT22;26906;45.658;9.272;2023-05-29T19:33:17;25.40;99.90
41168;DHT22;26906;45.658;9.272;2023-05-29T19:35:43;25.30;99.90
41168;DHT22;26906;45.658;9.272;2023-05-29T19:38:09;25.30;99.90
41168;DHT22;26906;45.658;9.272;2023-05-29T19:40:35;25.40;99.90
41168;DHT22;26906;45.658;9.272;2023-05-29T19:43:03;25.40;99.90
41168;DHT22;26906;45.658;9.272;2023-05-29T19:45:31;25.40;99.90
41168;DHT22;26906;45.658;9.272;2023-05-29T19:47:56;25.40;99.90
41168;DHT22;26906;45.658;9.272;2023-05-29T19:50:22;25.40;99.90
41168;DHT22;26906;45.658;9.272;2023-05-29T19:52:49;25.40;99.90
41168;DHT22;26906;45.658;9.272;2023-05-29T19:55:15;25.40;99.90
41168;DHT22;26906;45.658;9.272;2023-05-29T19:57:40;25.40;99.90
41168;DHT22;26906;45.658;9.272;2023-05-29T20:00:08;25.40;99.90
41168;DHT22;26906;45.658;9.272;2023-05-29T20:02:38;25.20;99.90
41168;DHT22;26906;45.658;9.272;2023-05-29T20:05:04;25.10;99.90
41168;DHT22;26906;45.658;9.272;2023-05-29T20:07:31;24.90;99.90
41168;DHT22;26906;45.658;9.272;2023-05-29T20:09:58;24.90;99.90
41168;DHT22;26906;45.658;9.272;2023-05-29T20:12:24;24.90;99.90
41168;DHT22;26906;45.658;9.272;2023-05-29T20:14:50;25.00;99.90
41168;DHT22;26906;45.658;9.272;2023-05-29T20:17:17;25.00;99.90
41168;DHT22;26906;45.658;9.272;2023-05-29T20:19:44;24.90;99.90
41168;DHT22;26906;45.658;9.272;2023-05-29T20:22:10;24.90;99.90
41168;DHT22;26906;45.658;9.272;2023-05-29T20:24:36;24.70;99.90
41168;DHT22;26906;45.658;9.272;2023-05-29T20:27:02;24.60;99.90
41168;DHT22;26906;45.658;9.272;2023-05-29T20:29:30;24.50;99.90
41168;DHT22;26906;45.658;9.272;2023-05-29T20:31:55;24.40;99.90
41168;DHT22;26906;45.658;9.272;2023-05-29T20:34:21;24.30;99.90
41168;DHT22;26906;45.658;9.272;2023-05-29T20:36:47;24.30;99.90
41168;DHT22;26906;45.658;9.272;2023-05-29T20:39:13;24.30;99.90
41168;DHT22;26906;45.658;9.272;2023-05-29T20:41:42;24.30;99.90
41168;DHT22;26906;45.658;9.272;2023-05-29T20:44:09;24.30;99.90
41168;DHT22;26906;45.658;9.272;2023-05-29T20:46:35;24.30;99.90
41168;DHT22;26906;45.658;9.272;2023-05-29T20:49:05;24.10;99.90
